Weather reports worldwide

Advertisment
Paganella, Italy (16022): temperature & dewpoint: 05.12.2019 09:00:00 - 11.12.2019 09:00:00 (CET)Paganella, Italy (16022): wind speed: 05.12.2019 09:00:00 - 11.12.2019 09:00:00 (CET)Paganella, Italy (16022): wind direction: 05.12.2019 09:00:00 - 11.12.2019 09:00:00 (CET)Paganella, Italy (16022): visibility: 05.12.2019 09:00:00 - 11.12.2019 09:00:00 (CET)Paganella, Italy (16022): sunshine duration: 05.12.2019 09:00:00 - 11.12.2019 09:00:00 (CET)
Date & Time tt [°C] td [°C] ff [km/h] ff [kn] dd vv [km] sd [min]
11.12.2019 09:00:00 -1,6 -30,0 22 12 N 50 60
11.12.2019 08:00:00 -2,0 -30,0 18 10 N 50 0
11.12.2019 07:00:00 -2,2 -30,0 22 12 N 50 -
11.12.2019 06:00:00 -2,4 -30,0 18 10 N 50 -
11.12.2019 05:00:00 -3,0 -30,0 18 10 N 50 -
11.12.2019 04:00:00 -3,4 -30,0 15 8 NNW 50 -
11.12.2019 03:00:00 -4,4 -30,0 8 4 W 60 -
11.12.2019 02:00:00 -5,6 -28,2 22 12 WNW 50 -
11.12.2019 01:00:00 -6,0 -29,2 11 6 W 50 -
11.12.2019 00:00:00 -6,0 -27,8 37 20 N 50 -
10.12.2019 23:00:00 -7,2 -25,8 28 15 NNW 50 -
10.12.2019 22:00:00 -7,6 -24,2 28 15 N 50 -
10.12.2019 21:00:00 -7,9 -23,6 28 15 N 50 -
10.12.2019 20:00:00 -8,0 -22,2 28 15 N 50 -
10.12.2019 19:00:00 -8,4 -20,5 28 15 N 50 -
10.12.2019 18:00:00 -7,8 -19,6 37 20 N 40 -
10.12.2019 17:00:00 -7,6 -18,9 37 20 N 50 24
10.12.2019 16:00:00 -7,5 -17,7 37 20 N 50 60
10.12.2019 15:00:00 -7,4 -16,8 37 20 N 50 60
10.12.2019 14:00:00 -6,8 -17,0 37 20 N 50 60
10.12.2019 13:00:00 -6,8 -16,7 37 20 N 50 60
10.12.2019 12:00:00 -6,9 -14,4 34 18 N 50 60
10.12.2019 11:00:00 -7,0 -12,1 29 16 N 40 60
10.12.2019 10:00:00 -7,0 -10,7 34 18 N 40 60
10.12.2019 09:00:00 -6,8 -10,3 34 18 N 50 60
10.12.2019 08:00:00 -6,8 -10,0 37 20 N 40 0
10.12.2019 07:00:00 -6,6 -10,5 37 20 N 40 -
10.12.2019 06:00:00 -6,2 -10,1 37 20 N 40 -
10.12.2019 05:00:00 -6,2 -9,7 34 18 N 40 -
10.12.2019 04:00:00 -5,8 -9,3 28 15 N 40 -
10.12.2019 03:00:00 -5,6 -11,3 28 15 N 40 -
10.12.2019 02:00:00 -5,0 -10,0 22 12 N 40 -
10.12.2019 01:00:00 -4,8 -9,3 26 14 N 40 -
10.12.2019 00:00:00 -4,2 -8,8 22 12 N 40 -
09.12.2019 23:00:00 -4,0 -8,3 15 8 N 40 -
09.12.2019 22:00:00 -3,8 -8,6 15 8 N 40 -
09.12.2019 21:00:00 -3,8 -7,4 9 5 N 40 -
09.12.2019 20:00:00 -3,6 -7,5 11 6 N 40 -
09.12.2019 19:00:00 -3,6 -6,5 9 5 N 40 -
09.12.2019 18:00:00 -3,4 -8,1 13 7 N 40 -
09.12.2019 17:00:00 -3,4 -7,2 13 7 NNW 30 12
09.12.2019 16:00:00 -3,6 -5,7 15 8 N 15 60
09.12.2019 15:00:00 -3,2 -5,5 13 7 N 15 60
09.12.2019 14:00:00 -2,8 -4,5 13 7 N 12 0
09.12.2019 13:00:00 -2,6 -4,0 15 8 N - 0
09.12.2019 12:00:00 -2,8 -3,5 0 0 N - 0
09.12.2019 11:00:00 -3,2 -3,9 0 0 N - 0
09.12.2019 10:00:00 -3,0 -3,0 0 0 N - 0
09.12.2019 09:00:00 -3,0 -3,0 15 8 SSW - 0
09.12.2019 08:00:00 -3,0 -3,1 16 9 SSW - -
09.12.2019 07:00:00 -3,0 -3,0 18 10 S - -
09.12.2019 06:00:00 -3,0 -3,0 15 8 SSW - -
09.12.2019 05:00:00 -3,0 -3,0 18 10 S - -
09.12.2019 04:00:00 -3,0 -3,0 16 9 S - -
09.12.2019 03:00:00 -2,0 -2,3 18 10 S - -
09.12.2019 02:00:00 -3,0 -3,4 22 12 S - -
09.12.2019 01:00:00 -3,4 -3,8 24 13 S - -
09.12.2019 00:00:00 -3,3 -3,6 22 12 S - -
08.12.2019 23:00:00 -3,2 -3,3 21 11 S - -
08.12.2019 22:00:00 -3,2 -3,2 22 12 S - -
08.12.2019 21:00:00 -3,2 -3,6 24 13 S - -
08.12.2019 20:00:00 -3,0 -3,0 21 11 S - -
08.12.2019 19:00:00 -2,6 -4,0 16 9 SSW 0,6 -
08.12.2019 18:00:00 -2,8 -4,4 15 8 WSW 40 -
08.12.2019 17:00:00 -1,0 -8,2 13 7 SW 60 12
08.12.2019 16:00:00 -0,6 -9,0 4 2 SSW 60 60
08.12.2019 15:00:00 -0,4 -10,1 11 6 SSW 60 60
08.12.2019 14:00:00 -1,2 -9,3 9 5 SW 60 60
08.12.2019 13:00:00 -0,3 -9,5 15 8 SSW 60 60
08.12.2019 12:00:00 -0,7 -9,8 16 9 SW 60 60
08.12.2019 11:00:00 -0,8 -9,2 13 7 SW 60 60
08.12.2019 10:00:00 -1,2 -9,1 15 8 SW 60 60
08.12.2019 09:00:00 -1,3 -9,2 16 9 WSW 60 42
08.12.2019 08:00:00 -2,0 -10,5 9 5 SW 60 0
08.12.2019 07:00:00 -2,1 -10,9 8 4 S 60 -
08.12.2019 06:00:00 -1,9 -10,7 8 4 S 50 -
08.12.2019 05:00:00 -1,6 -10,4 0 0 N 50 -
08.12.2019 04:00:00 -1,4 -10,2 8 4 SSE 50 -
08.12.2019 03:00:00 -1,3 -10,1 4 2 SSW 50 -
08.12.2019 02:00:00 -1,1 -10,0 0 0 N 50 -
08.12.2019 01:00:00 -1,0 -10,6 0 0 N 50 -
08.12.2019 00:00:00 -1,0 -10,1 11 6 N 50 -
07.12.2019 23:00:00 -0,7 -10,1 15 8 N 50 -
07.12.2019 22:00:00 -1,0 -9,1 13 7 N 50 -
07.12.2019 21:00:00 -0,7 -9,3 11 6 N 50 -
07.12.2019 20:00:00 0,3 -10,0 8 4 N 50 -
07.12.2019 19:00:00 0,8 -9,5 0 0 N 50 -
07.12.2019 18:00:00 0,9 -9,7 0 0 N 50 -
07.12.2019 17:00:00 1,0 -9,9 4 2 S 60 0
07.12.2019 16:00:00 1,2 -9,4 0 0 N 60 60
07.12.2019 15:00:00 1,7 -9,0 8 4 N 60 60
07.12.2019 14:00:00 1,9 -8,0 8 4 SSW 60 60
07.12.2019 13:00:00 1,8 -8,3 9 5 SSW 60 60
07.12.2019 12:00:00 1,6 -8,5 9 5 SW 60 60
07.12.2019 11:00:00 1,2 -9,1 0 0 N 60 36
07.12.2019 10:00:00 1,2 -9,1 9 5 S 60 60
07.12.2019 09:00:00 0,8 -8,4 8 4 S 60 42
07.12.2019 08:00:00 -0,2 -7,9 11 6 WSW 60 0
07.12.2019 07:00:00 -1,0 -10,1 9 5 S 50 -
07.12.2019 06:00:00 -1,3 -10,4 0 0 N 50 -
07.12.2019 05:00:00 -1,3 -10,1 13 7 N 50 -
07.12.2019 04:00:00 -2,8 -9,9 9 5 N 50 -
07.12.2019 03:00:00 -3,0 -7,7 11 6 S 50 -
07.12.2019 02:00:00 -3,0 -7,7 13 7 S 50 -
07.12.2019 01:00:00 -2,8 -7,9 9 5 SSE 50 -
07.12.2019 00:00:00 -2,7 -8,0 11 6 SSE 50 -
06.12.2019 23:00:00 -2,7 -9,4 9 5 SSE 50 -
06.12.2019 22:00:00 -2,4 -11,4 9 5 S 50 -
06.12.2019 21:00:00 -1,6 -14,4 8 4 SW 50 -
06.12.2019 20:00:00 -1,4 -14,2 0 0 N 50 -
06.12.2019 19:00:00 -1,2 -14,4 8 4 N 50 -
06.12.2019 18:00:00 -1,1 -14,3 0 0 N 50 -
06.12.2019 17:00:00 -1,0 -14,2 0 0 N 60 12
06.12.2019 16:00:00 -0,8 -14,0 0 0 N 60 60
06.12.2019 15:00:00 -0,6 -14,2 0 0 N 60 60
06.12.2019 14:00:00 -0,6 -13,5 0 0 N 60 60
06.12.2019 13:00:00 -1,0 -13,5 8 4 S 60 60
06.12.2019 12:00:00 -1,3 -14,1 9 5 SSW 60 60
06.12.2019 11:00:00 -1,0 -14,2 5 3 SSW 60 60
06.12.2019 10:00:00 -1,3 -14,5 5 3 SSW 60 60
06.12.2019 09:00:00 -1,3 -14,5 4 2 SSW 60 60
06.12.2019 08:00:00 -1,2 -14,7 0 0 N 60 0
06.12.2019 07:00:00 -1,0 -14,5 0 0 N 60 -
06.12.2019 06:00:00 -1,4 -14,9 0 0 N 50 -
06.12.2019 05:00:00 -1,6 -14,7 9 5 N 50 -
06.12.2019 04:00:00 -1,4 -14,2 8 4 NNW 50 -
06.12.2019 03:00:00 -1,6 -14,1 0 0 N 50 -
06.12.2019 02:00:00 -1,7 -14,5 0 0 N 50 -
06.12.2019 01:00:00 -1,9 -14,3 8 4 S 50 -
06.12.2019 00:00:00 -1,6 -14,4 8 4 S 50 -
05.12.2019 23:00:00 -1,2 -14,0 9 5 SW 50 -
05.12.2019 22:00:00 -0,8 -15,1 9 5 SSW 50 -
05.12.2019 21:00:00 0,1 -15,0 5 3 SSW 50 -
05.12.2019 20:00:00 0,2 -15,3 0 0 N 50 -
05.12.2019 19:00:00 0,4 -16,0 0 0 N 50 -
05.12.2019 18:00:00 0,3 -15,7 0 0 N 50 -
05.12.2019 17:00:00 0,1 -14,6 11 6 WSW 60 12
05.12.2019 16:00:00 0,9 -14,7 13 7 WSW 60 60
05.12.2019 15:00:00 0,6 -16,7 0 0 N 60 60
05.12.2019 14:00:00 0,2 -16,6 15 8 SW 60 60
05.12.2019 13:00:00 0,4 -16,9 16 9 WSW 60 60
05.12.2019 12:00:00 0,2 -17,1 11 6 SSW 60 60
05.12.2019 11:00:00 0,6 -16,3 11 6 SSW 60 60
05.12.2019 10:00:00 0,4 -16,0 9 5 SSW 60 60
05.12.2019 09:00:00 0,0 -16,8 0 0 N 60 60

tt = temperature
td = dewpoint
ff = wind speed
dd = wind direction
vv = visibility
sd = sunshine duration

Next stations